Time;durP1;ratioP1;P1;durP2;ratioP2;P2;SDS_P1;SDS_P2;PMS_P1;PMS_P2;Temp;Humidity;BMP_temperature;BMP_pressure;BME280_temperature;BME280_humidity;BME280_pressure;Samples;Min_cycle;Max_cycle;Signal;HPM_P1;HPM_P2
2021/12/18 00:02:10;;;;;;;7.10;6.50;;;11.20;99.90;;;11.20;86.77;103974.56;4994444;28;20053;-71
2021/12/18 00:04:39;;;;;;;6.65;6.05;;;11.20;99.90;;;10.95;86.67;103934.59;4977211;28;20050;-75
2021/12/18 00:07:08;;;;;;;5.78;5.28;;;11.20;99.90;;;11.38;86.63;104000.94;4977134;28;20180;-74
2021/12/18 00:09:37;;;;;;;6.00;5.47;;;11.20;99.90;;;11.15;86.51;103997.28;4994514;28;20077;-74
2021/12/18 00:12:09;;;;;;;5.53;5.10;;;11.10;99.90;;;10.75;86.55;103896.66;4994151;28;20049;-75
2021/12/18 00:14:38;;;;;;;6.10;5.53;;;11.10;99.90;;;10.76;87.06;103959.34;4994713;28;20046;-75
2021/12/18 00:17:06;;;;;;;5.85;5.28;;;10.90;99.90;;;11.05;87.41;103981.84;4994161;28;20073;-75
2021/12/18 00:19:35;;;;;;;6.38;5.78;;;10.90;99.90;;;11.22;87.12;103994.06;4994042;28;20466;-75
2021/12/18 00:22:05;;;;;;;6.88;6.28;;;11.00;99.90;;;11.19;86.99;103983.31;4994003;28;20125;-75
2021/12/18 00:24:33;;;;;;;7.93;6.85;;;11.00;99.90;;;11.17;86.85;103976.19;4993309;28;20109;-75
2021/12/18 00:27:02;;;;;;;8.73;7.53;;;11.10;99.90;;;11.25;87.02;103988.91;4994228;28;20070;-75
2021/12/18 00:29:32;;;;;;;9.15;8.25;;;11.10;99.90;;;11.28;87.00;103986.41;4993682;28;20144;-75
2021/12/18 00:32:00;;;;;;;11.87;8.50;;;11.10;99.90;;;11.27;86.97;103981.91;4994274;28;20054;-75
2021/12/18 00:34:29;;;;;;;11.18;9.43;;;11.10;99.90;;;11.21;87.27;103976.34;4993090;28;20105;-74
2021/12/18 00:36:57;;;;;;;11.65;9.27;;;11.10;99.90;;;11.28;87.22;103980.19;4993878;28;20042;-75
2021/12/18 00:39:28;;;;;;;10.27;8.75;;;11.10;99.90;;;11.07;87.75;103977.50;4993732;28;20096;-74
2021/12/18 00:42:19;;;;;;;11.60;9.98;;;10.90;99.90;;;10.55;89.13;103973.41;4993406;28;20042;-74
2021/12/18 00:44:49;;;;;;;13.73;10.35;;;10.60;99.90;;;10.87;89.62;103973.09;4993821;28;20439;-75
2021/12/18 00:47:18;;;;;;;11.63;10.38;;;10.60;99.90;;;10.87;89.32;103959.84;4994109;28;20046;-74
2021/12/18 00:49:47;;;;;;;13.13;10.77;;;10.70;99.90;;;10.94;89.13;104019.31;4993667;28;20042;-74
2021/12/18 00:52:15;;;;;;;12.60;10.85;;;10.80;99.90;;;10.99;89.39;103970.06;4993671;28;20042;-74
2021/12/18 00:54:43;;;;;;;13.18;11.68;;;10.80;99.90;;;10.95;89.19;103969.03;4993662;28;20074;-74
2021/12/18 00:57:12;;;;;;;11.77;10.30;;;10.80;99.90;;;10.98;89.28;103966.50;4993951;28;20447;-75
2021/12/18 00:59:40;;;;;;;12.60;10.82;;;10.80;99.90;;;10.76;89.05;103937.28;4993663;28;20133;-75
2021/12/18 01:02:10;;;;;;;11.32;10.13;;;10.80;99.90;;;10.96;89.06;103960.25;4993538;28;20051;-74
2021/12/18 01:04:39;;;;;;;9.48;8.07;;;10.80;99.90;;;10.72;89.10;103959.19;4993850;28;20062;-75
2021/12/18 01:07:08;;;;;;;8.80;7.95;;;10.60;99.90;;;10.72;89.42;103959.19;4993916;28;20401;-74
2021/12/18 01:09:51;;;;;;;9.02;8.13;;;10.50;99.90;;;10.78;88.81;103948.88;4993828;28;20050;-75
2021/12/18 01:12:24;;;;;;;8.20;7.40;;;10.60;99.90;;;10.74;88.59;103952.22;4994329;28;20050;-74
2021/12/18 01:15:04;;;;;;;9.13;7.38;;;10.70;99.90;;;10.64;88.97;103958.84;4993715;28;20097;-74
2021/12/18 01:23:07;;;;;;;8.05;6.57;;;10.30;99.90;;;10.38;90.49;103961.13;4993291;28;20053;-75
2021/12/18 01:25:35;;;;;;;6.93;6.20;;;10.30;99.90;;;10.12;90.48;103967.88;4993655;28;20039;-74
2021/12/18 01:28:04;;;;;;;7.50;6.80;;;10.00;99.90;;;10.14;90.50;103923.88;4993229;28;20451;-74
2021/12/18 01:30:33;;;;;;;6.90;6.28;;;10.20;99.90;;;10.24;90.25;103947.25;4993714;28;20133;-74
2021/12/18 01:33:04;;;;;;;6.32;5.72;;;10.20;99.90;;;10.51;89.42;103966.16;4993339;28;20093;-74
2021/12/18 01:35:32;;;;;;;;;;;10.30;99.90;;;10.56;89.33;103965.53;4993773;28;20046;-74
2021/12/18 01:38:01;;;;;;;6.70;6.05;;;10.40;99.90;;;10.66;88.76;103972.13;4993556;28;20343;-74
2021/12/18 01:40:29;;;;;;;6.05;5.45;;;10.50;99.90;;;10.74;88.27;103973.38;4993793;28;20058;-74
2021/12/18 01:46:15;;;;;;;6.85;6.25;;;10.50;99.90;;;10.65;88.33;103978.25;4993514;28;20050;-74
2021/12/18 01:51:47;;;;;;;8.90;6.72;;;10.30;99.90;;;10.18;88.88;103960.19;4994026;28;20038;-74
2021/12/18 01:54:16;;;;;;;7.47;6.78;;;10.30;99.90;;;10.17;90.38;103976.91;4996805;28;20440;-74
2021/12/18 01:56:45;;;;;;;8.85;7.00;;;10.10;99.90;;;10.35;89.73;103976.88;4997316;28;20540;-74
2021/12/18 01:59:13;;;;;;;8.95;7.47;;;10.20;99.90;;;10.48;89.50;103976.59;4996949;28;20039;-74
2021/12/18 02:01:42;;;;;;;8.88;7.97;;;10.30;99.90;;;10.63;89.50;103972.91;4979303;28;20495;-74
2021/12/18 02:04:11;;;;;;;10.02;8.48;;;10.40;99.90;;;10.62;88.97;103975.47;4996831;28;20042;-74
2021/12/18 02:06:40;;;;;;;11.52;8.48;;;10.50;99.90;;;10.66;89.68;103972.13;4996808;28;20050;-74
2021/12/18 02:09:09;;;;;;;9.80;8.80;;;10.50;99.90;;;10.56;89.41;103939.06;4996562;28;20042;-74
2021/12/18 02:11:38;;;;;;;11.90;8.85;;;10.50;99.90;;;10.46;88.99;103922.69;4995313;28;20401;-74
2021/12/18 02:14:36;;;;;;;9.50;8.50;;;10.60;99.90;;;10.48;89.59;103966.00;4996407;28;20499;-74
2021/12/18 02:19:59;;;;;;;9.05;8.15;;;10.00;99.90;;;10.00;91.67;103956.66;4996377;28;20114;-74
2021/12/18 02:22:29;;;;;;;9.23;7.85;;;9.80;99.90;;;9.83;92.81;103954.97;4996511;28;20101;-74
2021/12/18 02:24:57;;;;;;;10.40;9.05;;;9.70;99.90;;;10.12;92.14;103957.28;4996549;28;20042;-74
2021/12/18 02:27:26;;;;;;;10.88;8.73;;;9.90;99.90;;;10.16;91.87;103937.16;4996435;28;20070;-74
2021/12/18 02:29:54;;;;;;;10.18;9.05;;;10.00;99.90;;;10.23;91.57;103911.06;4978830;28;20173;-74
2021/12/18 02:32:22;;;;;;;9.80;8.43;;;10.20;99.90;;;10.60;90.93;103953.31;4996388;28;20046;-74
2021/12/18 02:34:58;;;;;;;10.55;8.60;;;10.40;99.90;;;10.52;90.79;103952.06;4995945;28;20035;-74
2021/12/18 02:37:31;;;;;;;9.70;8.70;;;10.40;99.90;;;10.47;90.47;103912.16;4996737;28;20162;-74
2021/12/18 02:42:52;;;;;;;10.18;9.07;;;10.60;99.90;;;10.70;89.87;103943.19;4996360;28;20046;-74
2021/12/18 02:45:21;;;;;;;9.68;8.68;;;10.60;99.90;;;10.90;89.57;103946.72;4995882;28;20554;-74
2021/12/18 02:47:51;;;;;;;8.77;7.95;;;10.70;99.90;;;10.92;88.91;103950.34;4995777;28;20052;-74
2021/12/18 02:50:20;;;;;;;8.65;7.85;;;10.70;99.90;;;10.90;88.77;103938.78;4995797;28;20047;-74
2021/12/18 02:52:50;;;;;;;8.77;7.97;;;10.70;99.90;;;10.96;88.60;103941.69;4996162;28;20056;-74
2021/12/18 02:55:18;;;;;;;8.63;7.83;;;10.80;99.90;;;10.94;87.98;103935.44;4995909;28;20049;-74
2021/12/18 02:57:46;;;;;;;7.97;7.18;;;10.80;99.90;;;10.98;87.93;103941.75;4995711;28;20133;-74
2021/12/18 03:00:16;;;;;;;8.48;7.68;;;10.80;99.90;;;10.91;87.81;103937.97;4995519;28;20050;-74
2021/12/18 03:02:45;;;;;;;9.65;8.60;;;10.80;99.90;;;10.61;87.92;103920.72;4994991;28;20066;-74
2021/12/18 03:05:21;;;;;;;9.75;8.75;;;10.60;99.90;;;10.53;88.61;103935.38;4995249;28;20045;-74
2021/12/18 03:07:58;;;;;;;8.82;8.02;;;10.40;99.90;;;10.18;89.77;103927.56;4995666;28;20042;-74
2021/12/18 03:24:33;;;;;;;10.05;9.05;;;10.30;99.90;;;10.74;89.65;103928.38;4994114;28;20046;-74
2021/12/18 03:27:01;;;;;;;9.38;8.48;;;10.50;99.90;;;10.85;89.49;103927.09;4995295;28;20039;-74
2021/12/18 03:29:30;;;;;;;10.63;9.52;;;10.60;99.90;;;10.87;88.97;103931.63;4994856;28;20039;-74
2021/12/18 03:31:58;;;;;;;10.48;9.38;;;10.70;99.90;;;10.87;88.48;103938.66;4995478;28;20097;-74
2021/12/18 03:34:27;;;;;;;10.35;9.27;;;10.70;99.90;;;10.47;89.65;103933.31;4995029;28;20042;-74
2021/12/18 03:36:55;;;;;;;11.27;10.18;;;10.40;99.90;;;9.98;91.49;103932.78;4995123;28;20555;-74
2021/12/18 03:39:23;;;;;;;10.90;9.80;;;10.00;99.90;;;9.76;92.96;103931.69;4994748;28;20451;-75
2021/12/18 03:41:54;;;;;;;11.75;10.05;;;9.70;99.90;;;10.07;92.73;103927.00;4994715;28;20039;-74
2021/12/18 03:44:22;;;;;;;12.50;10.90;;;9.80;99.90;;;9.81;93.24;103924.91;4994626;28;20078;-74
2021/12/18 03:46:52;;;;;;;12.27;10.88;;;9.70;99.90;;;9.73;94.13;103921.91;4995137;28;20061;-74
2021/12/18 03:49:20;;;;;;;13.55;10.65;;;9.50;99.90;;;9.76;94.47;103890.31;4995182;28;20096;-74
2021/12/18 03:51:48;;;;;;;14.30;11.63;;;9.60;99.90;;;9.97;93.69;103907.16;4994598;28;20062;-74
2021/12/18 03:54:17;;;;;;;13.45;11.32;;;9.80;99.90;;;9.96;94.30;103920.31;4994524;28;20101;-74
2021/12/18 03:56:45;;;;;;;14.65;11.57;;;9.70;99.90;;;9.79;94.12;103906.28;4994723;28;20129;-74
2021/12/18 03:59:15;;;;;;;15.43;12.60;;;9.70;99.90;;;10.08;94.13;103910.31;4994670;28;20062;-74
2021/12/18 04:01:43;;;;;;;13.60;12.17;;;9.90;99.90;;;10.29;94.13;103905.13;4994982;28;20061;-74
2021/12/18 04:04:12;;;;;;;13.13;11.05;;;10.00;99.90;;;10.42;93.53;103896.91;4994218;28;20333;-74
2021/12/18 04:06:42;;;;;;;13.65;10.88;;;10.20;99.90;;;10.44;93.17;103904.09;4994359;28;20050;-74
2021/12/18 04:09:12;;;;;;;12.80;10.73;;;10.20;99.90;;;10.55;92.58;103904.59;4994612;28;20078;-74
2021/12/18 04:11:42;;;;;;;18.13;12.68;;;10.30;99.90;;;10.27;92.54;103909.44;4994297;28;20101;-74
2021/12/18 04:14:11;;;;;;;14.77;11.65;;;10.20;99.90;;;10.45;92.92;103907.66;4993993;28;20070;-74
2021/12/18 04:16:41;;;;;;;17.77;13.50;;;10.20;99.90;;;10.41;92.56;103895.13;4994194;28;20146;-74
2021/12/18 04:19:09;;;;;;;16.55;12.27;;;10.30;99.90;;;10.46;92.47;103909.44;4994149;28;20826;-74
2021/12/18 04:21:38;;;;;;;16.15;11.82;;;10.30;99.90;;;10.58;92.37;103915.28;4994571;28;20070;-74
2021/12/18 04:24:07;;;;;;;14.65;10.95;;;10.40;99.90;;;10.43;91.93;103885.50;4994023;28;20036;-74
2021/12/18 04:26:36;;;;;;;13.02;11.13;;;10.40;99.90;;;10.65;91.74;103909.41;4994114;28;20047;-74
2021/12/18 04:29:06;;;;;;;14.73;11.38;;;10.50;99.90;;;10.48;91.18;103865.44;4993966;28;20080;-74
2021/12/18 04:31:36;;;;;;;15.07;11.57;;;10.60;99.90;;;10.79;90.93;103921.53;4994213;28;20046;-74
2021/12/18 04:34:07;;;;;;;12.27;10.20;;;10.60;99.90;;;10.73;90.50;103932.75;4994168;28;20133;-74
2021/12/18 04:36:36;;;;;;;9.88;8.70;;;10.60;99.90;;;10.24;90.68;103919.91;4993912;28;20046;-74
2021/12/18 04:39:05;;;;;;;11.68;9.23;;;10.30;99.90;;;10.32;90.93;103944.94;4994125;28;20462;-74
2021/12/18 04:41:40;;;;;;;12.32;10.00;;;10.30;99.90;;;10.44;91.25;103925.25;4994027;28;20046;-74
2021/12/18 04:44:09;;;;;;;12.75;10.85;;;10.30;99.90;;;10.38;90.91;103926.72;4994329;28;20121;-74
2021/12/18 04:46:37;;;;;;;11.77;10.32;;;10.30;99.90;;;10.11;91.53;103917.50;4993991;28;20407;-74
2021/12/18 04:49:07;;;;;;;14.75;11.48;;;10.10;99.90;;;9.78;92.41;103924.72;4993716;28;20077;-74
2021/12/18 04:51:35;;;;;;;13.30;11.03;;;9.90;99.90;;;9.84;93.42;103923.31;4993740;28;20412;-74
2021/12/18 04:54:04;;;;;;;14.57;10.63;;;9.80;99.90;;;9.93;93.53;103914.88;4994163;28;20050;-74
2021/12/18 04:56:33;;;;;;;13.95;11.20;;;9.90;99.90;;;10.08;93.47;103920.00;4993624;28;20563;-74
2021/12/18 04:59:02;;;;;;;14.35;11.77;;;9.90;99.90;;;10.15;93.86;103922.09;4976509;28;20468;-74
2021/12/18 05:01:35;;;;;;;16.88;12.88;;;9.90;99.90;;;10.32;93.61;103926.44;4993589;28;20100;-74
2021/12/18 05:04:05;;;;;;;12.27;10.73;;;10.10;99.90;;;10.40;92.98;103935.63;4994053;28;20073;-74
2021/12/18 05:06:36;;;;;;;11.10;9.85;;;10.20;99.90;;;10.40;92.90;103935.63;4993616;28;20042;-74
2021/12/18 05:09:05;;;;;;;11.65;10.27;;;10.20;99.90;;;10.37;92.25;103930.22;4993597;28;20050;-74
2021/12/18 05:11:39;;;;;;;9.60;8.40;;;10.30;99.90;;;10.32;92.29;103943.22;4993571;28;20054;-74
2021/12/18 05:14:08;;;;;;;10.52;9.35;;;10.20;99.90;;;10.15;91.86;103956.50;4993481;28;20053;-74
2021/12/18 05:16:37;;;;;;;11.13;9.88;;;10.10;99.90;;;10.10;92.35;103952.75;4993749;28;20088;-74
2021/12/18 05:19:05;;;;;;;12.98;10.75;;;10.00;99.90;;;9.82;92.59;103956.69;4993430;28;20034;-74
2021/12/18 05:21:36;;;;;;;12.18;10.32;;;9.80;99.90;;;10.01;93.12;103950.53;4993685;28;20046;-74
2021/12/18 05:24:05;;;;;;;17.75;10.82;;;9.80;99.90;;;10.09;92.85;103953.53;4993703;28;20069;-74
2021/12/18 05:26:34;;;;;;;35.45;11.68;;;9.90;99.90;;;10.02;92.41;103957.66;4994386;28;20443;-74
2021/12/18 05:29:02;;;;;;;18.08;12.30;;;9.90;99.90;;;9.83;93.03;103945.25;4997481;28;20121;-74
2021/12/18 05:31:31;;;;;;;16.17;12.20;;;9.90;99.90;;;10.13;93.00;103963.47;4997038;28;20054;-74
2021/12/18 05:34:02;;;;;;;16.75;13.07;;;9.90;99.90;;;10.26;93.21;103952.63;4997393;28;20489;-74
2021/12/18 05:36:35;;;;;;;19.38;14.20;;;10.00;99.90;;;9.76;92.50;103848.00;4997437;28;20053;-74
2021/12/18 05:39:08;;;;;;;16.17;13.18;;;10.10;99.90;;;10.29;91.99;103958.97;4997193;28;20487;-74
2021/12/18 05:41:38;;;;;;;14.68;12.48;;;10.20;99.90;;;10.32;91.89;103951.16;4979881;28;20058;-74
2021/12/18 05:44:07;;;;;;;15.75;11.80;;;10.20;99.90;;;10.30;91.60;103947.53;4996874;28;20093;-74
2021/12/18 05:46:36;;;;;;;13.82;12.23;;;10.20;99.90;;;10.10;91.44;103921.91;4997185;28;20040;-74
2021/12/18 05:49:05;;;;;;;15.98;13.07;;;10.10;99.90;;;10.28;91.19;103943.91;4996905;28;20081;-74
2021/12/18 05:51:34;;;;;;;16.70;12.27;;;10.20;99.90;;;10.26;90.96;103937.66;4995918;28;20050;-74
2021/12/18 05:54:02;;;;;;;17.48;12.10;;;10.20;99.90;;;10.34;90.98;103953.88;4997080;28;20076;-74
2021/12/18 05:56:33;;;;;;;18.70;11.40;;;10.20;99.90;;;9.66;90.82;103827.25;4996769;28;20105;-74
2021/12/18 05:59:02;;;;;;;14.95;11.75;;;10.20;99.90;;;10.33;90.92;103938.84;4997079;28;20101;-74
2021/12/18 06:01:31;;;;;;;15.18;12.20;;;10.20;99.90;;;10.24;90.37;103911.97;4996649;28;20048;-74
2021/12/18 06:03:59;;;;;;;14.48;10.75;;;10.30;99.90;;;10.33;90.25;103950.34;4996548;28;20046;-74
2021/12/18 06:06:30;;;;;;;11.95;9.70;;;10.20;99.90;;;10.31;89.87;103940.50;4996834;28;20408;-74
2021/12/18 06:08:58;;;;;;;14.27;10.70;;;10.20;99.90;;;10.15;89.74;103911.53;4996798;28;20093;-74
2021/12/18 06:11:30;;;;;;;16.52;11.98;;;10.20;99.90;;;10.32;89.97;103943.22;4978981;28;20286;-74
2021/12/18 06:14:00;;;;;;;16.40;12.23;;;10.20;99.90;;;10.28;89.81;103941.25;4996728;28;20046;-74
2021/12/18 06:16:29;;;;;;;14.80;11.13;;;10.10;99.90;;;10.27;89.70;103938.56;4996407;28;20108;-74
2021/12/18 06:18:57;;;;;;;16.75;10.68;;;10.10;99.90;;;9.92;89.72;103937.78;4996311;28;20050;-74
2021/12/18 06:21:26;;;;;;;13.73;9.70;;;10.00;99.90;;;9.54;90.52;103942.94;4996270;28;20499;-74
2021/12/18 06:23:56;;;;;;;14.15;10.40;;;9.60;99.90;;;9.82;90.87;103943.47;4996215;28;20046;-74
2021/12/18 06:26:27;;;;;;;14.52;10.38;;;9.60;99.90;;;9.44;91.00;103932.78;4996795;28;20046;-74
2021/12/18 06:28:56;;;;;;;17.35;10.60;;;9.50;99.90;;;8.76;92.86;103900.25;4996740;28;20046;-74
2021/12/18 06:31:37;;;;;;;15.52;10.45;;;9.00;99.90;;;8.98;94.07;103912.84;4996532;28;20062;-74
2021/12/18 06:34:05;;;;;;;26.30;11.40;;;8.90;99.90;;;9.06;94.42;103928.22;4996361;28;20411;-74
2021/12/18 06:36:34;;;;;;;23.95;11.40;;;8.90;99.90;;;9.04;94.34;103924.59;4996030;28;20475;-74
2021/12/18 06:39:03;;;;;;;32.75;11.80;;;8.90;99.90;;;8.79;95.21;103926.78;4995730;28;20105;-74
2021/12/18 06:41:31;;;;;;;26.05;11.50;;;8.70;99.90;;;8.33;96.90;103916.38;4996143;28;20065;-75
2021/12/18 06:43:59;;;;;;;27.52;12.32;;;8.40;99.90;;;8.36;98.43;103932.38;4978687;28;20444;-74
2021/12/18 06:46:28;;;;;;;43.67;12.70;;;8.30;99.90;;;8.50;98.81;103927.00;4996161;28;20052;-74
2021/12/18 06:48:57;;;;;;;22.05;11.85;;;8.40;99.90;;;8.49;99.07;103927.84;4995812;28;20047;-74
2021/12/18 06:51:26;;;;;;;28.20;12.30;;;8.30;99.90;;;8.34;99.33;103926.13;4978592;28;20050;-74
2021/12/18 06:53:54;;;;;;;37.20;12.15;;;8.20;99.90;;;8.43;99.32;103897.59;4995668;28;20049;-74
2021/12/18 06:56:23;;;;;;;21.92;11.98;;;8.40;99.90;;;8.85;99.31;103932.41;4995612;28;20057;-75
2021/12/18 06:58:52;;;;;;;22.95;11.60;;;8.60;99.90;;;8.84;98.50;103930.59;4995610;28;20080;-75
2021/12/18 07:01:20;;;;;;;25.50;12.55;;;8.70;99.90;;;8.90;98.37;103920.31;4995569;28;20460;-75
2021/12/18 07:03:49;;;;;;;25.15;11.68;;;8.70;99.90;;;9.11;97.82;103920.53;4995798;28;20034;-74
2021/12/18 07:06:19;;;;;;;31.05;10.55;;;8.90;99.90;;;9.13;97.52;103932.09;4995686;28;20121;-75
2021/12/18 07:08:47;;;;;;;60.45;12.27;;;9.00;99.90;;;9.15;96.85;103933.06;4995745;28;20050;-75
2021/12/18 07:11:16;;;;;;;20.63;11.85;;;9.10;99.90;;;6.79;96.59;103497.13;4995350;28;20476;-75
2021/12/18 07:13:44;;;;;;;21.60;12.13;;;9.10;99.90;;;9.40;96.38;103938.75;4995879;28;20101;-75
2021/12/18 07:16:12;;;;;;;23.70;12.25;;;9.20;99.90;;;9.39;96.09;103934.28;4995483;28;20043;-75
2021/12/18 07:18:41;;;;;;;47.55;13.60;;;9.30;99.90;;;9.05;95.62;103936.06;4995478;28;20042;-75
2021/12/18 07:21:09;;;;;;;52.00;14.52;;;9.00;99.90;;;8.93;97.18;103940.72;4995096;28;20109;-75
2021/12/18 07:23:40;;;;;;;60.67;13.15;;;8.80;99.90;;;8.75;97.17;103935.38;4995152;28;20046;-75
2021/12/18 07:26:08;;;;;;;80.03;14.68;;;8.70;99.90;;;8.90;97.90;103930.00;4995479;28;20066;-75
2021/12/18 07:28:37;;;;;;;23.02;13.02;;;8.70;99.90;;;9.03;97.89;103927.16;4995525;28;20046;-74
2021/12/18 07:31:05;;;;;;;79.72;13.32;;;8.80;99.90;;;8.89;97.73;103933.44;4995251;28;20058;-74
2021/12/18 07:33:35;;;;;;;27.15;13.95;;;8.80;99.90;;;9.07;97.84;103929.13;4994911;28;20042;-74
2021/12/18 07:36:06;;;;;;;25.13;14.10;;;8.90;99.90;;;9.34;97.54;103948.09;4995372;28;20055;-74
2021/12/18 07:38:34;;;;;;;26.25;14.00;;;9.10;99.90;;;9.49;96.94;103939.19;4995474;28;20070;-74
2021/12/18 07:41:04;;;;;;;26.85;13.88;;;9.30;99.90;;;9.53;96.04;103933.22;4994802;28;20449;-74
2021/12/18 07:43:33;;;;;;;48.67;13.07;;;9.30;99.90;;;9.06;95.15;103938.78;4994835;28;20101;-75
2021/12/18 07:46:01;;;;;;;40.05;13.23;;;9.10;99.90;;;8.85;95.94;103944.69;4994855;28;20049;-74
2021/12/18 07:48:30;;;;;;;49.88;12.73;;;8.90;99.90;;;8.51;97.43;103936.75;4994928;28;20077;-74
2021/12/18 07:50:59;;;;;;;27.73;12.70;;;8.60;99.90;;;8.59;97.97;103942.44;4993446;28;20073;-72
2021/12/18 07:53:27;;;;;;;26.20;12.23;;;8.50;99.90;;;8.88;98.13;103947.50;4994506;28;20092;-72
2021/12/18 07:55:55;;;;;;;29.17;12.55;;;8.70;99.90;;;8.89;97.20;103942.28;4994407;28;20555;-70
2021/12/18 07:58:26;;;;;;;33.30;12.43;;;8.80;99.90;;;8.60;98.71;103928.38;4994333;28;20089;-72
2021/12/18 08:00:54;;;;;;;41.97;11.25;;;8.50;99.90;;;8.29;98.60;103932.84;4994530;28;20464;-74
2021/12/18 08:03:23;;;;;;;28.25;11.60;;;8.40;99.90;;;8.54;99.54;103939.53;4994384;28;20136;-73
2021/12/18 08:05:51;;;;;;;51.13;11.88;;;8.40;99.90;;;8.10;100.00;103905.47;4994222;28;20042;-73
2021/12/18 08:08:20;;;;;;;58.65;13.45;;;8.20;99.90;;;8.17;100.00;103947.16;4994490;28;20073;-72
2021/12/18 08:10:49;;;;;;;61.50;12.07;;;8.10;99.90;;;8.37;100.00;103944.72;4994226;28;20069;-74
2021/12/18 08:13:17;;;;;;;35.22;13.13;;;8.20;99.90;;;8.14;100.00;103947.00;4993242;28;20591;-74
2021/12/18 08:15:47;;;;;;;26.75;12.60;;;8.10;99.90;;;8.42;100.00;103944.16;4976974;28;20411;-70
2021/12/18 08:18:15;;;;;;;41.95;12.45;;;8.20;99.90;;;8.29;100.00;103952.22;4994898;28;20046;-66
2021/12/18 08:20:44;;;;;;;41.33;12.00;;;8.10;99.90;;;8.23;100.00;103948.34;4994533;28;20046;-69
2021/12/18 08:23:12;;;;;;;22.00;11.13;;;8.10;99.90;;;8.36;100.00;103954.41;4994514;28;20104;-69
2021/12/18 08:25:41;;;;;;;49.33;12.18;;;8.20;99.90;;;8.26;100.00;103940.63;4994250;28;20396;-69
2021/12/18 08:28:10;;;;;;;28.27;12.25;;;8.20;99.90;;;8.67;100.00;103956.94;4994034;28;20080;-69
2021/12/18 08:30:39;;;;;;;36.70;12.52;;;8.40;99.90;;;8.43;100.00;103940.69;4994082;28;20100;-69
2021/12/18 08:33:09;;;;;;;38.60;12.75;;;8.40;99.90;;;8.27;100.00;103964.44;4994124;28;20398;-69
2021/12/18 08:35:38;;;;;;;22.08;12.57;;;8.20;99.90;;;8.53;100.00;103957.94;4994457;28;20050;-69
2021/12/18 08:38:07;;;;;;;28.42;11.85;;;8.30;99.90;;;8.49;100.00;103942.75;4993737;28;20468;-69
2021/12/18 08:40:36;;;;;;;46.55;11.90;;;8.50;99.90;;;8.57;100.00;103952.00;4993761;28;20050;-69
2021/12/18 08:43:05;;;;;;;34.35;10.70;;;8.50;99.90;;;8.26;100.00;103962.63;4976441;28;20043;-69
2021/12/18 08:45:34;;;;;;;68.85;11.90;;;8.20;99.90;;;7.98;100.00;103967.16;4976487;28;20047;-70
2021/12/18 08:48:02;;;;;;;68.05;10.93;;;8.00;99.90;;;7.76;100.00;103964.16;4993354;28;20069;-69
2021/12/18 08:50:33;;;;;;;68.78;11.60;;;7.80;99.90;;;7.65;100.00;103968.78;4976425;28;20398;-69
2021/12/18 08:53:01;;;;;;;50.80;10.80;;;7.60;99.90;;;7.74;100.00;103926.25;4993825;28;20043;-69
2021/12/18 08:55:29;;;;;;;80.95;12.10;;;7.80;99.90;;;7.90;100.00;103966.72;4993919;28;20125;-69
2021/12/18 08:57:58;;;;;;;57.17;13.13;;;7.80;99.90;;;8.00;100.00;103974.34;4993617;28;20042;-69
2021/12/18 09:00:29;;;;;;;36.03;11.70;;;7.80;99.90;;;7.95;100.00;103967.91;4993537;28;20038;-68
2021/12/18 09:02:59;;;;;;;19.60;10.82;;;7.80;99.90;;;8.15;100.00;103969.91;4997079;28;20046;-69
2021/12/18 09:05:29;;;;;;;37.65;10.60;;;7.90;99.90;;;8.29;100.00;103972.41;4997895;28;20054;-69
2021/12/18 09:07:59;;;;;;;20.00;11.15;;;8.10;99.90;;;8.48;100.00;103962.06;4998201;28;20409;-68
2021/12/18 09:10:28;;;;;;;29.58;10.88;;;8.30;99.90;;;8.32;100.00;103938.31;4997875;28;20121;-68
2021/12/18 09:12:56;;;;;;;19.55;10.02;;;8.30;99.90;;;8.58;100.00;103961.69;4997438;28;20074;-69
2021/12/18 09:15:25;;;;;;;17.50;10.23;;;8.40;99.90;;;8.75;100.00;103959.13;4997455;28;20448;-69
2021/12/18 09:17:53;;;;;;;25.27;10.32;;;8.60;99.90;;;8.74;99.71;103959.06;4997726;28;20137;-69
2021/12/18 09:20:22;;;;;;;31.90;9.40;;;8.60;99.90;;;8.37;99.33;103965.84;4997227;28;20047;-68
2021/12/18 09:22:51;;;;;;;22.60;10.27;;;8.40;99.90;;;7.99;100.00;103963.72;4997212;28;20086;-69
2021/12/18 09:25:20;;;;;;;16.05;9.70;;;8.10;99.90;;;7.82;100.00;103946.06;4997204;28;20504;-69
2021/12/18 09:27:49;;;;;;;18.27;9.73;;;7.90;99.90;;;8.36;100.00;103958.75;4997402;28;20069;-68
2021/12/18 09:30:17;;;;;;;23.65;9.45;;;8.10;99.90;;;8.39;100.00;103964.19;4997204;28;20389;-69
2021/12/18 09:32:46;;;;;;;20.13;9.60;;;8.30;99.90;;;8.26;100.00;103954.72;4997175;28;20093;-69
2021/12/18 09:35:15;;;;;;;26.38;8.90;;;8.10;99.90;;;7.96;100.00;103926.63;4997314;28;20042;-69
2021/12/18 09:37:44;;;;;;;14.52;9.15;;;8.00;99.90;;;8.20;100.00;103936.81;4997289;28;20137;-69
2021/12/18 09:40:13;;;;;;;17.85;8.93;;;8.20;99.90;;;8.62;100.00;103963.69;4997197;28;20133;-70
2021/12/18 09:42:43;;;;;;;16.98;9.50;;;8.40;99.90;;;8.80;100.00;103960.31;4996881;28;20093;-70
2021/12/18 09:45:13;;;;;;;19.30;9.75;;;8.50;99.90;;;8.71;99.47;103959.78;4996774;28;20089;-69
2021/12/18 09:47:42;;;;;;;36.17;9.40;;;8.50;99.90;;;8.56;98.97;103960.72;4997100;28;20043;-70
2021/12/18 09:50:12;;;;;;;14.23;9.95;;;8.40;99.90;;;8.73;99.57;103957.25;4996802;28;20321;-69
2021/12/18 09:52:40;;;;;;;16.85;9.57;;;8.50;99.90;;;8.72;99.16;103958.06;4996792;28;20042;-69
2021/12/18 09:55:11;;;;;;;16.98;10.25;;;8.50;99.90;;;8.87;99.04;103945.66;4997036;28;20388;-69
2021/12/18 09:57:42;;;;;;;17.73;10.32;;;8.70;99.90;;;8.92;98.66;103928.34;4996989;28;20051;-71
2021/12/18 10:00:15;;;;;;;86.63;11.35;;;8.90;99.90;;;9.01;97.99;103955.22;4997212;28;20046;-71
2021/12/18 10:02:43;;;;;;;19.58;9.02;;;8.90;99.90;;;8.96;97.23;103944.41;4997071;28;20038;-72
2021/12/18 10:05:26;;;;;;;14.05;9.88;;;8.80;99.90;;;8.99;97.30;103926.09;4996493;28;20042;-74
2021/12/18 10:08:15;;;;;;;15.45;9.68;;;8.90;99.90;;;9.20;97.36;103936.81;4996419;28;20554;-74
2021/12/18 10:11:05;;;;;;;14.85;9.50;;;9.00;99.90;;;9.40;97.22;103944.03;4996863;28;20050;-73
2021/12/18 10:13:54;;;;;;;13.02;8.55;;;9.20;99.90;;;9.48;96.84;103940.03;4995047;28;20491;-70
2021/12/18 10:16:26;;;;;;;12.25;8.65;;;9.30;99.90;;;9.57;96.37;103944.84;4996446;28;20550;-69
2021/12/18 10:18:56;;;;;;;15.77;8.52;;;9.40;99.90;;;9.62;95.60;103948.63;4996302;28;20038;-70
2021/12/18 10:21:27;;;;;;;15.40;8.83;;;9.40;99.90;;;9.62;95.03;103933.66;4996270;28;20482;-70
2021/12/18 10:23:57;;;;;;;12.80;9.38;;;9.50;99.90;;;9.69;94.63;103946.38;4996501;28;20066;-71
2021/12/18 10:26:33;;;;;;;11.25;8.55;;;9.50;99.90;;;9.76;94.49;103955.47;4996198;28;20100;-72
2021/12/18 10:29:06;;;;;;;12.38;8.90;;;9.60;99.90;;;9.81;94.35;103948.69;4995327;28;20084;-72
2021/12/18 10:31:43;;;;;;;12.70;8.55;;;9.60;99.90;;;9.80;93.79;103955.72;4996008;28;20054;-73
2021/12/18 10:34:21;;;;;;;10.93;7.93;;;9.60;99.90;;;9.81;93.57;103936.34;4996382;28;20104;-72
2021/12/18 10:37:15;;;;;;;12.43;8.07;;;9.60;99.90;;;9.91;93.03;103953.59;4996156;28;20046;-70
2021/12/18 10:39:56;;;;;;;13.88;8.30;;;9.70;99.90;;;9.93;92.80;103952.81;4996212;28;20286;-71
2021/12/18 10:42:28;;;;;;;11.48;8.30;;;9.70;99.90;;;9.90;92.58;103942.09;4996651;28;20077;-71
2021/12/18 10:45:16;;;;;;;10.77;7.20;;;9.80;99.90;;;9.92;92.56;103939.53;4995777;28;20492;-70
2021/12/18 10:47:54;;;;;;;10.07;7.50;;;9.80;99.90;;;10.06;92.02;103953.41;4995696;28;20042;-72
2021/12/18 10:50:29;;;;;;;10.13;8.27;;;9.80;99.90;;;10.11;91.53;103952.81;4995751;28;20120;-70
2021/12/18 10:53:01;;;;;;;10.82;8.25;;;9.90;99.90;;;10.17;91.46;103946.91;4994764;28;20492;-69
2021/12/18 10:55:37;;;;;;;9.85;7.65;;;9.90;99.90;;;9.98;91.00;103916.94;4995725;28;20070;-70